createdAt,value
2016-07-27T00:00:21.988Z,0
2016-07-27T00:01:21.979Z,0
2016-07-27T00:02:22.034Z,0
2016-07-27T00:03:22.017Z,0
2016-07-27T00:04:21.942Z,0
2016-07-27T00:05:21.968Z,0
2016-07-27T00:07:22.145Z,0
2016-07-27T00:08:21.933Z,0
2016-07-27T00:09:21.957Z,0
2016-07-27T00:10:21.926Z,0
2016-07-27T00:11:21.932Z,0
2016-07-27T00:12:21.934Z,0
2016-07-27T00:13:21.922Z,0
2016-07-27T00:14:21.905Z,0
2016-07-27T00:15:21.902Z,0
2016-07-27T00:16:21.907Z,0
2016-07-27T00:17:22.098Z,0
2016-07-27T00:18:21.896Z,0
2016-07-27T00:19:21.873Z,0
2016-07-27T00:20:21.840Z,0
2016-07-27T00:22:21.892Z,0
2016-07-27T00:23:21.853Z,0
2016-07-27T00:24:21.817Z,0
2016-07-27T00:25:21.783Z,0
2016-07-27T00:26:21.831Z,0
2016-07-27T00:27:21.782Z,0
2016-07-27T00:28:21.780Z,0
2016-07-27T00:29:21.788Z,0
2016-07-27T00:30:21.793Z,0
2016-07-27T00:31:21.988Z,0
2016-07-27T00:32:21.990Z,0
2016-07-27T00:33:21.763Z,0
2016-07-27T00:34:21.756Z,0
2016-07-27T00:35:22.428Z,0
2016-07-27T00:37:21.747Z,0
2016-07-27T00:38:21.723Z,0
2016-07-27T00:39:21.714Z,0
2016-07-27T00:40:21.699Z,0
2016-07-27T00:41:21.700Z,0
2016-07-27T00:42:21.709Z,0
2016-07-27T00:43:21.693Z,0
2016-07-27T00:44:21.858Z,0
2016-07-27T00:45:21.680Z,0
2016-07-27T00:46:21.629Z,0
2016-07-27T00:47:21.670Z,0
2016-07-27T00:48:21.643Z,0
2016-07-27T00:49:21.641Z,0
2016-07-27T00:50:21.617Z,0
2016-07-27T00:51:21.617Z,0
2016-07-27T00:52:21.631Z,0
2016-07-27T00:53:21.570Z,0
2016-07-27T00:54:21.766Z,0
2016-07-27T00:55:21.576Z,0
2016-07-27T00:56:21.565Z,0
2016-07-27T00:57:21.565Z,0
2016-07-27T00:58:21.574Z,0
2016-07-27T00:59:21.567Z,0
2016-07-27T01:00:21.552Z,0
2016-07-27T01:01:21.561Z,0
2016-07-27T01:02:21.538Z,0
2016-07-27T01:03:21.494Z,0
2016-07-27T01:04:21.720Z,0
2016-07-27T01:05:21.545Z,0
2016-07-27T01:06:21.536Z,0
2016-07-27T01:07:21.518Z,0
2016-07-27T01:08:21.494Z,0
2016-07-27T01:09:22.138Z,0
2016-07-27T01:10:21.498Z,0
2016-07-27T01:11:21.483Z,0
2016-07-27T01:12:21.428Z,0
2016-07-27T01:13:21.452Z,0
2016-07-27T01:14:21.434Z,0
2016-07-27T01:15:21.435Z,0
2016-07-27T01:16:21.423Z,0
2016-07-27T01:17:36.319Z,0
2016-07-27T01:18:22.120Z,0
2016-07-27T01:19:21.379Z,0
2016-07-27T01:20:21.627Z,0
2016-07-27T01:21:21.589Z,0
2016-07-27T01:22:21.642Z,0
2016-07-27T01:23:21.375Z,0
2016-07-27T01:24:21.395Z,0
2016-07-27T01:25:21.389Z,0
2016-07-27T01:26:21.369Z,0
2016-07-27T01:27:21.356Z,0
2016-07-27T01:28:21.291Z,0
2016-07-27T01:29:21.335Z,0
2016-07-27T01:30:21.278Z,0
2016-07-27T01:31:21.270Z,0
2016-07-27T01:32:21.283Z,0
2016-07-27T01:33:21.305Z,0
2016-07-27T01:34:21.274Z,0
2016-07-27T01:35:21.290Z,0
2016-07-27T01:36:21.270Z,0
2016-07-27T01:37:21.257Z,0
2016-07-27T01:38:21.302Z,0
2016-07-27T01:39:21.221Z,0
2016-07-27T01:40:21.210Z,0
2016-07-27T01:41:21.282Z,0
2016-07-27T01:42:21.211Z,0
2016-07-27T01:43:21.270Z,0
2016-07-27T01:44:21.196Z,0
2016-07-27T01:45:21.265Z,0
2016-07-27T01:46:21.211Z,0
2016-07-27T01:47:21.204Z,0
2016-07-27T01:48:21.209Z,0
2016-07-27T01:49:21.176Z,0
2016-07-27T01:50:21.215Z,0
2016-07-27T01:51:21.188Z,0
2016-07-27T01:52:21.184Z,0
2016-07-27T01:53:21.128Z,0
2016-07-27T01:54:21.183Z,0
2016-07-27T01:55:21.159Z,0
2016-07-27T01:56:21.186Z,0
2016-07-27T01:57:21.142Z,0
2016-07-27T01:58:21.141Z,0
2016-07-27T01:59:21.109Z,0
2016-07-27T02:00:21.116Z,0
2016-07-27T02:01:21.153Z,0
2016-07-27T02:02:21.112Z,0
2016-07-27T02:03:21.156Z,0
2016-07-27T02:04:21.809Z,0
2016-07-27T02:05:21.110Z,0
2016-07-27T02:06:21.110Z,0
2016-07-27T02:07:21.145Z,0
2016-07-27T02:08:21.089Z,0
2016-07-27T02:09:21.033Z,0
2016-07-27T02:10:21.091Z,0
2016-07-27T02:11:21.047Z,0
2016-07-27T02:12:21.074Z,0
2016-07-27T02:13:21.046Z,0
2016-07-27T02:14:21.004Z,0
2016-07-27T02:15:21.064Z,0
2016-07-27T02:16:21.042Z,0
2016-07-27T02:17:21.056Z,0
2016-07-27T02:18:21.017Z,0
2016-07-27T02:19:20.984Z,0
2016-07-27T02:20:21.032Z,0
2016-07-27T02:21:20.997Z,0
2016-07-27T02:22:20.983Z,0
2016-07-27T02:23:20.993Z,0
2016-07-27T02:24:20.999Z,0
2016-07-27T02:25:20.923Z,0
2016-07-27T02:26:20.977Z,0
2016-07-27T02:27:21.676Z,0
2016-07-27T02:28:20.986Z,0
2016-07-27T02:29:20.947Z,0
2016-07-27T02:30:20.974Z,0
2016-07-27T02:31:20.948Z,0
2016-07-27T02:32:20.923Z,0
2016-07-27T02:33:20.931Z,0
2016-07-27T02:34:20.939Z,0
2016-07-27T02:35:20.915Z,0
2016-07-27T02:36:20.905Z,0
2016-07-27T02:37:20.877Z,0
2016-07-27T02:38:20.892Z,0
2016-07-27T02:39:20.866Z,0
2016-07-27T02:40:20.875Z,0
2016-07-27T02:41:20.897Z,0
2016-07-27T02:42:20.880Z,0
2016-07-27T02:43:20.882Z,0
2016-07-27T02:44:20.845Z,0
2016-07-27T02:45:20.835Z,0
2016-07-27T02:46:20.826Z,0
2016-07-27T02:47:20.872Z,0
2016-07-27T02:48:20.859Z,0
2016-07-27T02:49:20.856Z,0
2016-07-27T02:50:20.839Z,0
2016-07-27T02:51:21.172Z,0
2016-07-27T02:52:20.805Z,0
2016-07-27T02:53:20.820Z,0
2016-07-27T02:54:20.819Z,0
2016-07-27T02:55:20.775Z,0
2016-07-27T02:56:20.761Z,0
2016-07-27T02:57:20.728Z,0
2016-07-27T02:58:20.793Z,0
2016-07-27T02:59:20.770Z,0
2016-07-27T03:00:20.759Z,0
2016-07-27T03:01:20.706Z,0
2016-07-27T03:02:20.710Z,0
2016-07-27T03:03:20.744Z,0
2016-07-27T03:04:20.719Z,0
2016-07-27T03:05:20.714Z,0
2016-07-27T03:06:20.729Z,0
2016-07-27T03:07:21.424Z,0
2016-07-27T03:08:20.703Z,0
2016-07-27T03:09:20.660Z,0
2016-07-27T03:10:20.687Z,0
2016-07-27T03:11:20.711Z,0
2016-07-27T03:12:20.709Z,0
2016-07-27T03:13:20.691Z,0
2016-07-27T03:14:21.356Z,0
2016-07-27T03:15:20.698Z,0
2016-07-27T03:16:20.657Z,0
2016-07-27T03:17:20.667Z,0
2016-07-27T03:18:20.626Z,0
2016-07-27T03:19:20.665Z,0
2016-07-27T03:20:20.640Z,0
2016-07-27T03:21:20.651Z,0
2016-07-27T03:22:20.637Z,0
2016-07-27T03:23:20.632Z,0
2016-07-27T03:24:20.600Z,0
2016-07-27T03:25:20.612Z,0
2016-07-27T03:26:20.577Z,0
2016-07-27T03:27:20.599Z,0
2016-07-27T03:28:20.597Z,0
2016-07-27T03:29:20.553Z,0
2016-07-27T03:30:20.584Z,0
2016-07-27T03:31:20.540Z,0
2016-07-27T03:32:20.518Z,0
2016-07-27T03:33:20.579Z,0
2016-07-27T03:34:20.507Z,0
2016-07-27T03:35:20.556Z,0
2016-07-27T03:36:20.594Z,0
2016-07-27T03:37:20.521Z,0
2016-07-27T03:38:20.516Z,5
2016-07-27T03:39:20.518Z,5
2016-07-27T03:40:20.478Z,5
2016-07-27T03:41:20.536Z,5
2016-07-27T03:42:20.521Z,5
2016-07-27T03:43:20.478Z,5
2016-07-27T03:44:20.465Z,10
2016-07-27T03:45:20.443Z,10
2016-07-27T03:46:20.493Z,10
2016-07-27T03:47:20.497Z,15
2016-07-27T03:48:20.468Z,15
2016-07-27T03:49:20.464Z,15
2016-07-27T03:50:20.457Z,20
2016-07-27T03:51:20.494Z,20
2016-07-27T03:52:20.463Z,20
2016-07-27T03:53:20.433Z,20
2016-07-27T03:54:21.138Z,20
2016-07-27T03:55:20.391Z,20
2016-07-27T03:56:20.418Z,20
2016-07-27T03:57:20.431Z,25
2016-07-27T03:58:20.370Z,25
2016-07-27T03:59:21.088Z,25
2016-07-27T04:00:20.396Z,25
2016-07-27T04:01:20.351Z,30
2016-07-27T04:02:20.386Z,30
2016-07-27T04:03:20.419Z,30
2016-07-27T04:04:20.373Z,35
2016-07-27T04:05:20.374Z,35
2016-07-27T04:06:20.351Z,35
2016-07-27T04:07:20.288Z,35
2016-07-27T04:08:20.359Z,40
2016-07-27T04:09:20.345Z,40
2016-07-27T04:10:20.312Z,40
2016-07-27T04:11:20.331Z,45
2016-07-27T04:12:20.323Z,45
2016-07-27T04:13:20.293Z,45
2016-07-27T04:14:20.300Z,50
2016-07-27T04:15:20.241Z,55
2016-07-27T04:16:20.269Z,60
2016-07-27T04:17:20.256Z,65
2016-07-27T04:18:20.241Z,65
2016-07-27T04:19:20.226Z,70
2016-07-27T04:20:20.237Z,75
2016-07-27T04:21:20.214Z,75
2016-07-27T04:22:20.267Z,80
2016-07-27T04:23:20.236Z,85
2016-07-27T04:24:20.253Z,90
2016-07-27T04:25:20.236Z,90
2016-07-27T04:26:20.187Z,95
2016-07-27T04:27:20.211Z,100
2016-07-27T04:28:20.204Z,100
2016-07-27T04:29:20.221Z,105
2016-07-27T04:30:20.180Z,110
2016-07-27T04:31:20.166Z,115
2016-07-27T04:32:20.194Z,115
2016-07-27T04:33:20.178Z,120
2016-07-27T04:34:20.202Z,120
2016-07-27T04:35:20.157Z,125
2016-07-27T04:36:20.157Z,125
2016-07-27T04:38:20.109Z,135
2016-07-27T04:39:20.157Z,140
2016-07-27T04:40:20.119Z,145
2016-07-27T04:41:20.115Z,150
2016-07-27T04:42:20.083Z,155
2016-07-27T04:43:20.097Z,155
2016-07-27T04:44:20.081Z,155
2016-07-27T04:45:20.100Z,155
2016-07-27T04:46:20.058Z,160
2016-07-27T04:47:20.068Z,155
2016-07-27T04:48:20.090Z,160
2016-07-27T04:49:20.103Z,165
2016-07-27T04:50:20.088Z,175
2016-07-27T04:51:20.043Z,185
2016-07-27T04:53:20.062Z,195
2016-07-27T04:54:20.013Z,200
2016-07-27T04:55:20.016Z,205
2016-07-27T04:56:20.041Z,210
2016-07-27T04:57:20.029Z,220
2016-07-27T04:58:20.002Z,235
2016-07-27T04:59:19.985Z,235
2016-07-27T05:00:19.990Z,250
2016-07-27T05:01:20.015Z,260
2016-07-27T05:02:19.982Z,265
2016-07-27T05:03:20.013Z,265
2016-07-27T05:04:20.003Z,270
2016-07-27T05:05:19.959Z,275
2016-07-27T05:06:19.980Z,280
2016-07-27T05:08:19.974Z,295
2016-07-27T05:09:19.912Z,300
2016-07-27T05:10:19.919Z,315
2016-07-27T05:11:19.943Z,335
2016-07-27T05:12:19.919Z,350
2016-07-27T05:13:20.150Z,360
2016-07-27T05:14:19.937Z,375
2016-07-27T05:15:19.916Z,380
2016-07-27T05:16:19.914Z,385
2016-07-27T05:17:19.934Z,390
2016-07-27T05:18:19.889Z,390
2016-07-27T05:19:19.896Z,390
2016-07-27T05:20:19.863Z,390
2016-07-27T05:21:19.850Z,385
2016-07-27T05:23:19.858Z,375
2016-07-27T05:24:19.843Z,375
2016-07-27T05:25:19.840Z,375
2016-07-27T05:26:19.820Z,380
2016-07-27T05:27:19.822Z,390
2016-07-27T05:28:19.814Z,400
2016-07-27T05:29:19.805Z,400
2016-07-27T05:30:19.815Z,410
2016-07-27T05:31:19.826Z,420
2016-07-27T05:32:19.781Z,435
2016-07-27T05:33:19.792Z,455
2016-07-27T05:34:19.811Z,465
2016-07-27T05:35:19.774Z,475
2016-07-27T05:36:19.755Z,480
2016-07-27T05:38:19.771Z,490
2016-07-27T05:39:19.792Z,500
2016-07-27T05:40:19.735Z,500
2016-07-27T05:41:19.762Z,505
2016-07-27T05:42:19.794Z,515
2016-07-27T05:43:19.788Z,520
2016-07-27T05:44:19.732Z,520
2016-07-27T05:45:19.678Z,515
2016-07-27T05:46:19.746Z,515
2016-07-27T05:47:19.726Z,530
2016-07-27T05:48:19.713Z,545
2016-07-27T05:49:19.717Z,570
2016-07-27T05:50:19.711Z,585
2016-07-27T05:51:19.719Z,590
2016-07-27T05:53:19.712Z,590
2016-07-27T05:54:19.733Z,595
2016-07-27T05:55:19.688Z,605
2016-07-27T05:56:19.672Z,615
2016-07-27T05:57:19.670Z,635
2016-07-27T05:58:19.619Z,650
2016-07-27T05:59:19.648Z,670
2016-07-27T06:00:19.676Z,690
2016-07-27T06:01:19.639Z,705
2016-07-27T06:02:19.632Z,720
2016-07-27T06:03:19.616Z,730
2016-07-27T06:04:19.618Z,730
2016-07-27T06:05:19.628Z,725
2016-07-27T06:06:19.609Z,720
2016-07-27T06:08:19.609Z,750
2016-07-27T06:09:19.619Z,765
2016-07-27T06:10:20.270Z,780
2016-07-27T06:11:19.560Z,780
2016-07-27T06:12:19.588Z,775
2016-07-27T06:13:19.554Z,760
2016-07-27T06:14:19.575Z,735
2016-07-27T06:15:19.577Z,715
2016-07-27T06:16:19.560Z,695
2016-07-27T06:17:19.569Z,665
2016-07-27T06:18:19.577Z,645
2016-07-27T06:19:19.570Z,625
2016-07-27T06:20:19.520Z,600
2016-07-27T06:21:19.530Z,575
2016-07-27T06:23:19.537Z,520
2016-07-27T06:24:19.528Z,505
2016-07-27T06:25:19.552Z,505
2016-07-27T06:26:19.506Z,515
2016-07-27T06:27:20.191Z,520
2016-07-27T06:28:19.505Z,530
2016-07-27T06:29:19.482Z,545
2016-07-27T06:30:19.546Z,565
2016-07-27T06:31:19.528Z,585
2016-07-27T06:32:19.480Z,605
2016-07-27T06:33:19.460Z,630
2016-07-27T06:34:20.220Z,650
2016-07-27T06:35:19.482Z,660
2016-07-27T06:36:19.466Z,670
2016-07-27T06:38:19.442Z,680
2016-07-27T06:39:19.473Z,680
2016-07-27T06:40:19.445Z,670
2016-07-27T06:41:19.446Z,655
2016-07-27T06:42:19.462Z,645
2016-07-27T06:43:19.488Z,635
2016-07-27T06:44:19.436Z,635
2016-07-27T06:45:19.427Z,635
2016-07-27T06:46:19.401Z,655
2016-07-27T06:47:19.401Z,680
2016-07-27T06:48:19.428Z,705
2016-07-27T06:49:19.438Z,735
2016-07-27T06:50:19.420Z,755
2016-07-27T06:51:19.387Z,775
2016-07-27T06:53:19.368Z,765
2016-07-27T06:54:19.387Z,740
2016-07-27T06:55:19.398Z,720
2016-07-27T06:56:19.401Z,700
2016-07-27T06:57:19.413Z,685
2016-07-27T06:58:19.351Z,685
2016-07-27T06:59:19.390Z,695
2016-07-27T07:00:19.346Z,715
2016-07-27T07:01:19.333Z,740
2016-07-27T07:02:19.344Z,765
2016-07-27T07:03:19.364Z,785
2016-07-27T07:04:19.342Z,805
2016-07-27T07:05:19.331Z,805
2016-07-27T07:06:19.347Z,800
2016-07-27T07:08:19.292Z,805
2016-07-27T07:09:19.296Z,810
2016-07-27T07:10:19.299Z,820
2016-07-27T07:11:19.342Z,845
2016-07-27T07:12:19.301Z,870
2016-07-27T07:13:19.308Z,885
2016-07-27T07:14:19.296Z,895
2016-07-27T07:15:19.283Z,900
2016-07-27T07:16:19.288Z,905
2016-07-27T07:17:19.272Z,915
2016-07-27T07:18:19.264Z,935
2016-07-27T07:19:19.272Z,950
2016-07-27T07:20:19.266Z,980
2016-07-27T07:21:19.231Z,1010
2016-07-27T07:23:19.234Z,1080
2016-07-27T07:24:19.245Z,1110
2016-07-27T07:25:19.216Z,1125
2016-07-27T07:26:19.213Z,1145
2016-07-27T07:27:19.254Z,1165
2016-07-27T07:28:19.922Z,1195
2016-07-27T07:29:19.252Z,1205
2016-07-27T07:30:19.244Z,1225
2016-07-27T07:31:19.193Z,1245
2016-07-27T07:32:19.225Z,1245
2016-07-27T07:33:19.202Z,1245
2016-07-27T07:34:19.217Z,1240
2016-07-27T07:35:19.198Z,1240
2016-07-27T07:36:19.188Z,1260
2016-07-27T07:38:19.225Z,1315
2016-07-27T07:39:19.153Z,1345
2016-07-27T07:40:19.176Z,1385
2016-07-27T07:41:19.164Z,1415
2016-07-27T07:42:19.175Z,1415
2016-07-27T07:43:19.130Z,1425
2016-07-27T07:44:19.150Z,1455
2016-07-27T07:45:19.149Z,1515
2016-07-27T07:46:19.162Z,1585
2016-07-27T07:47:19.118Z,1670
2016-07-27T07:48:19.129Z,1680
2016-07-27T07:49:19.141Z,2340
2016-07-27T07:50:19.132Z,3605
2016-07-27T07:51:19.117Z,3605
2016-07-27T07:53:19.117Z,1540
2016-07-27T07:54:19.835Z,1520
2016-07-27T07:55:19.058Z,1515
2016-07-27T07:56:19.069Z,1455
2016-07-27T07:57:19.081Z,1435
2016-07-27T07:58:19.098Z,1435
2016-07-27T07:59:19.114Z,2515
2016-07-27T08:00:19.079Z,1405
2016-07-27T08:01:19.094Z,1320
2016-07-27T08:02:19.096Z,1485
2016-07-27T08:03:19.079Z,1380
2016-07-27T08:04:19.044Z,1465
2016-07-27T08:05:19.113Z,1285
2016-07-27T08:06:19.112Z,1390
2016-07-27T08:07:19.068Z,1680
2016-07-27T08:08:19.059Z,3015
2016-07-27T08:09:19.069Z,2890
2016-07-27T08:10:19.020Z,2625
2016-07-27T08:11:19.040Z,2500
2016-07-27T08:12:19.069Z,2485
2016-07-27T08:13:19.015Z,2460
2016-07-27T08:14:19.029Z,2230
2016-07-27T08:15:19.017Z,2285
2016-07-27T08:16:19.077Z,2270
2016-07-27T08:17:19.053Z,2340
2016-07-27T08:18:19.017Z,2350
2016-07-27T08:19:19.046Z,2265
2016-07-27T08:20:19.023Z,2230
2016-07-27T08:21:18.963Z,2585
2016-07-27T08:22:19.057Z,3225
2016-07-27T08:23:19.029Z,3425
2016-07-27T08:24:19.041Z,2780
2016-07-27T08:25:18.968Z,2310
2016-07-27T08:26:19.023Z,2385
2016-07-27T08:27:18.991Z,2180
2016-07-27T08:28:19.020Z,2030
2016-07-27T08:29:18.997Z,2025
2016-07-27T08:30:18.984Z,2020
2016-07-27T08:31:18.970Z,2130
2016-07-27T08:32:18.954Z,2115
2016-07-27T08:33:18.981Z,2170
2016-07-27T08:34:18.962Z,2330
2016-07-27T08:35:18.977Z,2835
2016-07-27T08:36:18.977Z,3575
2016-07-27T08:37:18.975Z,4585
2016-07-27T08:38:18.976Z,4880
2016-07-27T08:39:18.932Z,4130
2016-07-27T08:40:18.970Z,3830
2016-07-27T08:41:18.979Z,3945
2016-07-27T08:42:18.932Z,4360
2016-07-27T08:43:18.955Z,3965
2016-07-27T08:44:18.992Z,3660
2016-07-27T08:45:18.980Z,3840
2016-07-27T08:46:18.926Z,4340
2016-07-27T08:47:18.943Z,4405
2016-07-27T08:48:18.918Z,3845
2016-07-27T08:49:18.967Z,4070
2016-07-27T08:50:18.956Z,4240
2016-07-27T08:51:18.944Z,3625
2016-07-27T08:52:18.937Z,3375
2016-07-27T08:53:18.932Z,3665
2016-07-27T08:54:18.941Z,3400
2016-07-27T08:55:18.953Z,4300
2016-07-27T08:56:18.986Z,4120
2016-07-27T08:57:18.913Z,1955
2016-07-27T08:58:18.911Z,1955
2016-07-27T08:59:18.936Z,1355
2016-07-27T09:00:18.909Z,1350
2016-07-27T09:01:18.938Z,1445
2016-07-27T09:02:18.907Z,1825
2016-07-27T09:03:18.934Z,2720
2016-07-27T09:04:18.943Z,3175
2016-07-27T09:05:18.925Z,2730
2016-07-27T09:06:18.920Z,3025
2016-07-27T09:07:18.908Z,2510
2016-07-27T09:08:18.913Z,2910
2016-07-27T09:09:18.895Z,2000
2016-07-27T09:10:18.917Z,2190
2016-07-27T09:11:18.874Z,2680
2016-07-27T09:12:18.942Z,2815
2016-07-27T09:13:18.913Z,3145
2016-07-27T09:14:19.633Z,3410
2016-07-27T09:15:19.659Z,3435
2016-07-27T09:16:18.863Z,5645
2016-07-27T09:17:18.864Z,3985
2016-07-27T09:18:18.897Z,4505
2016-07-27T09:19:18.883Z,2970
2016-07-27T09:20:18.889Z,3575
2016-07-27T09:21:18.890Z,3090
2016-07-27T09:22:18.869Z,3145
2016-07-27T09:23:18.874Z,2830
2016-07-27T09:24:18.848Z,3180
2016-07-27T09:25:18.888Z,3920
2016-07-27T09:26:18.823Z,3815
2016-07-27T09:27:18.857Z,3775
2016-07-27T09:28:19.572Z,2300
2016-07-27T09:29:18.904Z,1630
2016-07-27T09:30:18.864Z,1645
2016-07-27T09:31:18.911Z,1660
2016-07-27T09:32:18.864Z,1580
2016-07-27T09:33:18.862Z,1560
2016-07-27T09:34:18.868Z,1670
2016-07-27T09:35:18.837Z,1750
2016-07-27T09:36:18.840Z,2225
2016-07-27T09:37:18.816Z,2260
2016-07-27T09:38:18.809Z,2080
2016-07-27T09:39:18.847Z,2120
2016-07-27T09:40:18.833Z,3550
2016-07-27T09:41:18.818Z,2885
2016-07-27T09:42:18.825Z,4435
2016-07-27T09:43:18.818Z,4055
2016-07-27T09:44:18.826Z,2690
2016-07-27T09:45:19.561Z,2815
2016-07-27T09:46:18.824Z,2425
2016-07-27T09:47:18.796Z,2525
2016-07-27T09:48:18.816Z,2810
2016-07-27T09:49:18.807Z,1725
2016-07-27T09:50:18.818Z,1545
2016-07-27T09:51:18.811Z,1585
2016-07-27T09:52:18.782Z,1500
2016-07-27T09:53:18.789Z,1420
2016-07-27T09:54:18.778Z,1425
2016-07-27T09:55:18.754Z,1370
2016-07-27T09:56:18.755Z,1235
2016-07-27T09:57:18.783Z,1335
2016-07-27T09:58:18.781Z,1635
2016-07-27T09:59:18.779Z,2080
2016-07-27T10:00:18.792Z,1970
2016-07-27T10:01:18.778Z,1585
2016-07-27T10:02:18.743Z,1720
2016-07-27T10:03:18.702Z,1790
2016-07-27T10:04:18.719Z,2520
2016-07-27T10:05:18.754Z,2545
2016-07-27T10:06:18.746Z,2035
2016-07-27T10:07:18.747Z,2955
2016-07-27T10:08:18.734Z,2560
2016-07-27T10:09:18.704Z,2625
2016-07-27T10:10:19.441Z,2880
2016-07-27T10:11:18.684Z,3610
2016-07-27T10:12:18.735Z,3910
2016-07-27T10:13:18.720Z,5380
2016-07-27T10:14:18.736Z,4085
2016-07-27T10:15:18.697Z,3165
2016-07-27T10:16:18.682Z,2920
2016-07-27T10:17:18.693Z,2560
2016-07-27T10:18:18.675Z,2115
2016-07-27T10:19:18.669Z,2170
2016-07-27T10:20:18.658Z,3485
2016-07-27T10:21:18.643Z,4485
2016-07-27T10:22:18.666Z,2190
2016-07-27T10:23:18.677Z,1590
2016-07-27T10:24:18.668Z,5570
2016-07-27T10:25:18.658Z,5585
2016-07-27T10:26:18.659Z,4860
2016-07-27T10:27:18.660Z,4730
2016-07-27T10:28:18.651Z,5145
2016-07-27T10:29:18.611Z,1305
2016-07-27T10:30:18.641Z,2855
2016-07-27T10:31:18.667Z,2600
2016-07-27T10:32:18.653Z,2255
2016-07-27T10:33:18.630Z,2255
2016-07-27T10:34:18.696Z,2295
2016-07-27T10:35:18.648Z,2345
2016-07-27T10:36:18.624Z,2540
2016-07-27T10:37:18.643Z,3115
2016-07-27T10:39:18.604Z,4375
2016-07-27T10:40:18.611Z,3225
2016-07-27T10:41:18.587Z,3845
2016-07-27T10:42:18.621Z,3090
2016-07-27T10:43:18.601Z,2075
2016-07-27T10:44:18.577Z,2505
2016-07-27T10:45:19.295Z,5210
2016-07-27T10:46:18.575Z,5355
2016-07-27T10:47:18.588Z,6125
2016-07-27T10:48:18.647Z,3710
2016-07-27T10:49:18.613Z,3820
2016-07-27T10:50:18.592Z,4590
2016-07-27T10:52:18.581Z,2225
2016-07-27T10:53:18.572Z,2525
2016-07-27T10:54:18.545Z,3140
2016-07-27T10:55:18.574Z,1725
2016-07-27T10:56:18.552Z,3585
2016-07-27T10:57:18.568Z,1735
2016-07-27T10:58:18.597Z,1705
2016-07-27T10:59:18.570Z,1795
2016-07-27T11:00:18.594Z,2210
2016-07-27T11:01:18.563Z,6235
2016-07-27T11:02:18.546Z,5880
2016-07-27T11:03:18.562Z,5755
2016-07-27T11:04:19.277Z,5620
2016-07-27T11:05:18.537Z,5665
2016-07-27T11:06:18.543Z,5585
2016-07-27T11:07:18.543Z,5505
2016-07-27T11:09:18.513Z,2280
2016-07-27T11:10:18.534Z,1570
2016-07-27T11:11:18.546Z,1490
2016-07-27T11:12:18.505Z,1330
2016-07-27T11:13:18.531Z,1270
2016-07-27T11:14:18.535Z,1225
2016-07-27T11:15:18.488Z,1255
2016-07-27T11:16:18.561Z,1345
2016-07-27T11:17:18.496Z,1580
2016-07-27T11:18:18.544Z,2275
2016-07-27T11:19:18.522Z,2175
2016-07-27T11:20:18.488Z,2190
2016-07-27T11:21:18.545Z,1645
2016-07-27T11:22:18.519Z,1540
2016-07-27T11:23:18.513Z,1490
2016-07-27T11:24:18.494Z,1460
2016-07-27T11:25:18.463Z,1485
2016-07-27T11:26:18.500Z,1645
2016-07-27T11:27:18.497Z,1840
2016-07-27T11:28:18.508Z,1905
2016-07-27T11:29:18.483Z,1740
2016-07-27T11:30:18.491Z,1555
2016-07-27T11:31:18.477Z,1350
2016-07-27T11:32:18.496Z,1200
2016-07-27T11:33:18.462Z,1095
2016-07-27T11:34:18.519Z,1205
2016-07-27T11:35:18.480Z,1480
2016-07-27T11:36:18.496Z,2025
2016-07-27T11:37:18.510Z,4795
2016-07-27T11:39:18.484Z,4260
2016-07-27T11:40:18.471Z,4295
2016-07-27T11:41:18.437Z,4200
2016-07-27T11:42:19.162Z,2010
2016-07-27T11:43:18.429Z,2215
2016-07-27T11:44:18.438Z,2015
2016-07-27T11:45:18.459Z,1830
2016-07-27T11:46:18.433Z,1680
2016-07-27T11:47:18.389Z,1580
2016-07-27T11:48:19.133Z,1505
2016-07-27T11:49:18.448Z,1475
2016-07-27T11:50:18.416Z,1455
2016-07-27T11:51:18.446Z,1555
2016-07-27T11:52:18.423Z,1595
2016-07-27T11:54:18.391Z,2030
2016-07-27T11:55:18.413Z,1915
2016-07-27T11:56:18.380Z,1610
2016-07-27T11:57:18.411Z,1350
2016-07-27T11:58:18.392Z,1240
2016-07-27T11:59:18.392Z,1245
2016-07-27T12:00:18.398Z,1370
2016-07-27T12:01:18.396Z,1620
2016-07-27T12:02:18.355Z,2190
2016-07-27T12:03:18.385Z,2380
2016-07-27T12:04:18.395Z,2655
2016-07-27T12:05:18.354Z,2205
2016-07-27T12:06:18.346Z,1890
2016-07-27T12:07:18.370Z,1870
2016-07-27T12:09:18.366Z,2795
2016-07-27T12:10:18.393Z,2110
2016-07-27T12:11:18.346Z,1860
2016-07-27T12:12:18.377Z,1715
2016-07-27T12:13:18.340Z,1635
2016-07-27T12:14:18.353Z,1660
2016-07-27T12:15:18.315Z,2040
2016-07-27T12:16:18.314Z,3125
2016-07-27T12:17:18.360Z,4055
2016-07-27T12:18:18.362Z,3975
2016-07-27T12:19:18.305Z,4020
2016-07-27T12:20:18.296Z,2590
2016-07-27T12:21:18.307Z,3870
2016-07-27T12:22:18.325Z,3670
2016-07-27T12:23:18.303Z,4335
2016-07-27T12:24:18.292Z,2515
2016-07-27T12:25:18.292Z,2575
2016-07-27T12:26:18.288Z,3290
2016-07-27T12:27:18.300Z,3340
2016-07-27T12:28:18.304Z,2890
2016-07-27T12:29:18.291Z,2250
2016-07-27T12:30:18.306Z,2890
2016-07-27T12:31:18.238Z,1815
2016-07-27T12:32:18.296Z,1560
2016-07-27T12:33:18.286Z,1485
2016-07-27T12:34:18.255Z,1560
2016-07-27T12:35:18.270Z,1715
2016-07-27T12:36:18.244Z,1985
2016-07-27T12:37:18.297Z,1910
2016-07-27T12:38:18.256Z,1675
2016-07-27T12:39:18.266Z,1775
2016-07-27T12:40:18.262Z,3635
2016-07-27T12:41:18.236Z,1755
2016-07-27T12:42:18.197Z,1215
2016-07-27T12:43:18.223Z,1110
2016-07-27T12:44:18.259Z,1115
2016-07-27T12:45:18.228Z,1220
2016-07-27T12:46:18.233Z,985
2016-07-27T12:47:18.218Z,790
2016-07-27T12:48:18.239Z,665
2016-07-27T12:49:18.229Z,650
2016-07-27T12:50:18.210Z,810
2016-07-27T12:51:18.181Z,555
2016-07-27T12:52:18.205Z,565
2016-07-27T12:53:18.198Z,515
2016-07-27T12:54:18.220Z,635
2016-07-27T12:55:18.158Z,855
2016-07-27T12:56:18.199Z,935
2016-07-27T12:57:18.205Z,1100
2016-07-27T12:58:18.161Z,1275
2016-07-27T12:59:18.162Z,1380
2016-07-27T13:00:18.151Z,1470
2016-07-27T13:01:18.134Z,1465
2016-07-27T13:02:18.113Z,1485
2016-07-27T13:03:18.123Z,1650
2016-07-27T13:04:18.146Z,1680
2016-07-27T13:05:18.155Z,1580
2016-07-27T13:06:18.079Z,1495
2016-07-27T13:07:18.112Z,1400
2016-07-27T13:08:18.104Z,1205
2016-07-27T13:09:18.157Z,1045
2016-07-27T13:10:18.108Z,900
2016-07-27T13:11:18.126Z,740
2016-07-27T13:12:18.081Z,630
2016-07-27T13:13:18.090Z,600
2016-07-27T13:14:18.092Z,605
2016-07-27T13:15:18.065Z,605
2016-07-27T13:16:18.061Z,555
2016-07-27T13:17:18.065Z,535
2016-07-27T13:18:18.028Z,580
2016-07-27T13:19:18.007Z,735
2016-07-27T13:20:18.090Z,920
2016-07-27T13:21:18.052Z,1080
2016-07-27T13:22:18.009Z,1195
2016-07-27T13:23:18.040Z,1420
2016-07-27T13:24:18.017Z,1445
2016-07-27T13:25:18.015Z,1385
2016-07-27T13:26:18.015Z,1450
2016-07-27T13:27:18.697Z,1555
2016-07-27T13:28:18.013Z,1550
2016-07-27T13:29:18.027Z,1345
2016-07-27T13:30:18.020Z,1220
2016-07-27T13:31:18.005Z,1095
2016-07-27T13:32:17.958Z,915
2016-07-27T13:33:17.998Z,815
2016-07-27T13:34:18.007Z,750
2016-07-27T13:35:17.979Z,640
2016-07-27T13:36:17.980Z,555
2016-07-27T13:37:17.991Z,470
2016-07-27T13:38:17.979Z,380
2016-07-27T13:39:17.945Z,350
2016-07-27T13:40:17.944Z,335
2016-07-27T13:41:17.941Z,325
2016-07-27T13:42:17.960Z,305
2016-07-27T13:43:17.969Z,270
2016-07-27T13:44:17.907Z,195
2016-07-27T13:45:17.937Z,185
2016-07-27T13:46:17.905Z,155
2016-07-27T13:47:17.916Z,135
2016-07-27T13:48:17.909Z,150
2016-07-27T13:49:17.911Z,190
2016-07-27T13:50:17.955Z,210
2016-07-27T13:51:17.892Z,205
2016-07-27T13:52:17.870Z,180
2016-07-27T13:53:17.884Z,195
2016-07-27T13:54:17.930Z,210
2016-07-27T13:55:17.948Z,200
2016-07-27T13:56:17.897Z,220
2016-07-27T13:57:17.853Z,285
2016-07-27T13:58:17.870Z,420
2016-07-27T13:59:17.894Z,400
2016-07-27T14:00:17.872Z,365
2016-07-27T14:01:18.571Z,355
2016-07-27T14:02:17.792Z,420
2016-07-27T14:03:17.888Z,385
2016-07-27T14:04:17.820Z,365
2016-07-27T14:05:17.791Z,370
2016-07-27T14:06:17.788Z,415
2016-07-27T14:07:17.782Z,430
2016-07-27T14:08:17.792Z,480
2016-07-27T14:09:17.748Z,460
2016-07-27T14:10:17.793Z,450
2016-07-27T14:11:17.776Z,390
2016-07-27T14:12:17.814Z,375
2016-07-27T14:13:18.498Z,355
2016-07-27T14:14:17.791Z,350